METAR Data
IDs: Format: Raw Decoded Include TAF

Data at: 0205 UTC 01 Mar 2021

K1M5 010155Z AUTO 36016G21KT 4SM BR SCT005 BKN016 OVC031 14/14 A2988 RMK A01 P0074